sensor_id;sensor_type;location;lat;lon;timestamp;temperature;humidity
5278;DHT22;2662;51.194;6.614;2023-03-14T00:02:23;13.10;99.90
5278;DHT22;2662;51.194;6.614;2023-03-14T00:04:54;13.10;99.90
5278;DHT22;2662;51.194;6.614;2023-03-14T00:07:20;13.10;99.90
5278;DHT22;2662;51.194;6.614;2023-03-14T00:09:49;13.10;99.90
5278;DHT22;2662;51.194;6.614;2023-03-14T00:12:16;13.10;99.90
5278;DHT22;2662;51.194;6.614;2023-03-14T00:14:43;13.10;99.90
5278;DHT22;2662;51.194;6.614;2023-03-14T00:17:10;13.20;99.90
5278;DHT22;2662;51.194;6.614;2023-03-14T00:19:38;13.30;99.90
5278;DHT22;2662;51.194;6.614;2023-03-14T00:22:04;13.30;99.90
5278;DHT22;2662;51.194;6.614;2023-03-14T00:24:31;13.30;99.90
5278;DHT22;2662;51.194;6.614;2023-03-14T00:26:58;13.10;99.90
5278;DHT22;2662;51.194;6.614;2023-03-14T00:29:25;12.90;99.90
5278;DHT22;2662;51.194;6.614;2023-03-14T00:31:51;12.50;99.90
5278;DHT22;2662;51.194;6.614;2023-03-14T00:34:18;12.20;99.90
5278;DHT22;2662;51.194;6.614;2023-03-14T00:36:46;11.90;99.90
5278;DHT22;2662;51.194;6.614;2023-03-14T00:39:13;11.70;99.90
5278;DHT22;2662;51.194;6.614;2023-03-14T00:41:40;11.60;99.90
5278;DHT22;2662;51.194;6.614;2023-03-14T00:44:06;11.50;99.90
5278;DHT22;2662;51.194;6.614;2023-03-14T00:46:33;11.40;99.90
5278;DHT22;2662;51.194;6.614;2023-03-14T00:49:00;11.30;99.90
5278;DHT22;2662;51.194;6.614;2023-03-14T00:51:27;11.10;99.90
5278;DHT22;2662;51.194;6.614;2023-03-14T00:53:55;11.00;99.90
5278;DHT22;2662;51.194;6.614;2023-03-14T00:56:21;11.00;99.90
5278;DHT22;2662;51.194;6.614;2023-03-14T00:58:48;11.00;99.90
5278;DHT22;2662;51.194;6.614;2023-03-14T01:01:16;10.90;99.90
5278;DHT22;2662;51.194;6.614;2023-03-14T01:03:44;10.80;99.90
5278;DHT22;2662;51.194;6.614;2023-03-14T01:06:13;10.80;99.90
5278;DHT22;2662;51.194;6.614;2023-03-14T01:08:40;10.70;99.90
5278;DHT22;2662;51.194;6.614;2023-03-14T01:11:11;10.70;99.90
5278;DHT22;2662;51.194;6.614;2023-03-14T01:13:39;10.60;99.90
5278;DHT22;2662;51.194;6.614;2023-03-14T01:16:07;10.60;99.90
5278;DHT22;2662;51.194;6.614;2023-03-14T01:18:35;10.60;99.90
5278;DHT22;2662;51.194;6.614;2023-03-14T01:21:01;10.60;99.90
5278;DHT22;2662;51.194;6.614;2023-03-14T01:23:28;10.50;99.90
5278;DHT22;2662;51.194;6.614;2023-03-14T01:25:55;10.60;99.90
5278;DHT22;2662;51.194;6.614;2023-03-14T01:28:24;10.60;99.90
5278;DHT22;2662;51.194;6.614;2023-03-14T01:30:51;10.60;99.90
5278;DHT22;2662;51.194;6.614;2023-03-14T01:33:18;10.70;99.90
5278;DHT22;2662;51.194;6.614;2023-03-14T01:35:44;10.70;99.90
5278;DHT22;2662;51.194;6.614;2023-03-14T01:38:11;10.70;99.90
5278;DHT22;2662;51.194;6.614;2023-03-14T01:40:42;10.80;99.90
5278;DHT22;2662;51.194;6.614;2023-03-14T01:43:15;10.80;99.90
5278;DHT22;2662;51.194;6.614;2023-03-14T01:48:50;11.00;99.90
5278;DHT22;2662;51.194;6.614;2023-03-14T01:51:22;11.00;99.90
5278;DHT22;2662;51.194;6.614;2023-03-14T01:53:53;11.00;99.90
5278;DHT22;2662;51.194;6.614;2023-03-14T01:56:20;11.00;99.90
5278;DHT22;2662;51.194;6.614;2023-03-14T01:58:49;11.10;99.90
5278;DHT22;2662;51.194;6.614;2023-03-14T02:01:19;11.10;99.90
5278;DHT22;2662;51.194;6.614;2023-03-14T02:03:52;11.20;99.90
5278;DHT22;2662;51.194;6.614;2023-03-14T02:06:22;11.20;99.90
5278;DHT22;2662;51.194;6.614;2023-03-14T02:08:50;11.20;99.90
5278;DHT22;2662;51.194;6.614;2023-03-14T02:11:17;11.20;99.90
5278;DHT22;2662;51.194;6.614;2023-03-14T02:13:45;11.30;99.90
5278;DHT22;2662;51.194;6.614;2023-03-14T02:16:12;11.30;99.90
5278;DHT22;2662;51.194;6.614;2023-03-14T02:18:39;11.30;99.90
5278;DHT22;2662;51.194;6.614;2023-03-14T02:21:13;11.30;99.90
5278;DHT22;2662;51.194;6.614;2023-03-14T02:23:51;11.30;99.90
5278;DHT22;2662;51.194;6.614;2023-03-14T02:26:22;11.40;99.90
5278;DHT22;2662;51.194;6.614;2023-03-14T02:28:53;11.40;99.90
5278;DHT22;2662;51.194;6.614;2023-03-14T02:31:21;11.40;99.90
5278;DHT22;2662;51.194;6.614;2023-03-14T02:33:49;11.40;99.90
5278;DHT22;2662;51.194;6.614;2023-03-14T02:36:17;11.40;99.90
5278;DHT22;2662;51.194;6.614;2023-03-14T02:38:47;11.30;99.90
5278;DHT22;2662;51.194;6.614;2023-03-14T02:41:16;11.40;99.90
5278;DHT22;2662;51.194;6.614;2023-03-14T02:43:43;11.30;99.90
5278;DHT22;2662;51.194;6.614;2023-03-14T02:46:13;11.30;99.90
5278;DHT22;2662;51.194;6.614;2023-03-14T02:48:44;11.30;99.90
5278;DHT22;2662;51.194;6.614;2023-03-14T02:51:12;11.30;99.90
5278;DHT22;2662;51.194;6.614;2023-03-14T02:53:40;11.30;99.90
5278;DHT22;2662;51.194;6.614;2023-03-14T02:56:09;11.30;99.90
5278;DHT22;2662;51.194;6.614;2023-03-14T02:58:36;11.30;99.90
5278;DHT22;2662;51.194;6.614;2023-03-14T03:01:04;11.30;99.90
5278;DHT22;2662;51.194;6.614;2023-03-14T03:03:32;11.30;99.90
5278;DHT22;2662;51.194;6.614;2023-03-14T03:05:59;11.40;99.90
5278;DHT22;2662;51.194;6.614;2023-03-14T03:08:27;11.40;99.90
5278;DHT22;2662;51.194;6.614;2023-03-14T03:10:54;11.40;99.90
5278;DHT22;2662;51.194;6.614;2023-03-14T03:13:21;11.40;99.90
5278;DHT22;2662;51.194;6.614;2023-03-14T03:15:48;11.40;99.90
5278;DHT22;2662;51.194;6.614;2023-03-14T03:18:15;11.40;99.90
5278;DHT22;2662;51.194;6.614;2023-03-14T03:20:43;11.30;99.90
5278;DHT22;2662;51.194;6.614;2023-03-14T03:23:11;11.30;99.90
5278;DHT22;2662;51.194;6.614;2023-03-14T03:25:38;11.30;99.90
5278;DHT22;2662;51.194;6.614;2023-03-14T03:28:05;11.30;99.90
5278;DHT22;2662;51.194;6.614;2023-03-14T03:30:33;11.20;99.90
5278;DHT22;2662;51.194;6.614;2023-03-14T03:33:00;11.20;99.90
5278;DHT22;2662;51.194;6.614;2023-03-14T03:35:27;11.20;99.90
5278;DHT22;2662;51.194;6.614;2023-03-14T03:37:55;11.10;99.90
5278;DHT22;2662;51.194;6.614;2023-03-14T03:40:22;11.10;99.90
5278;DHT22;2662;51.194;6.614;2023-03-14T03:42:48;11.10;99.90
5278;DHT22;2662;51.194;6.614;2023-03-14T03:45:15;11.00;99.90
5278;DHT22;2662;51.194;6.614;2023-03-14T03:47:42;10.90;99.90
5278;DHT22;2662;51.194;6.614;2023-03-14T03:50:09;10.90;99.90
5278;DHT22;2662;51.194;6.614;2023-03-14T03:52:36;10.90;99.90
5278;DHT22;2662;51.194;6.614;2023-03-14T03:55:05;10.90;99.90
5278;DHT22;2662;51.194;6.614;2023-03-14T03:57:32;11.00;99.90
5278;DHT22;2662;51.194;6.614;2023-03-14T03:59:58;11.00;99.90
5278;DHT22;2662;51.194;6.614;2023-03-14T04:02:25;11.10;99.90
5278;DHT22;2662;51.194;6.614;2023-03-14T04:04:52;11.10;99.90
5278;DHT22;2662;51.194;6.614;2023-03-14T04:07:18;11.20;99.90
5278;DHT22;2662;51.194;6.614;2023-03-14T04:09:45;11.30;99.90
5278;DHT22;2662;51.194;6.614;2023-03-14T04:12:13;11.20;99.90
5278;DHT22;2662;51.194;6.614;2023-03-14T04:14:40;11.20;99.90
5278;DHT22;2662;51.194;6.614;2023-03-14T04:17:07;11.10;99.90
5278;DHT22;2662;51.194;6.614;2023-03-14T04:19:34;11.10;99.90
5278;DHT22;2662;51.194;6.614;2023-03-14T04:22:00;11.10;99.90
5278;DHT22;2662;51.194;6.614;2023-03-14T04:24:27;11.10;99.90
5278;DHT22;2662;51.194;6.614;2023-03-14T04:26:54;11.00;99.90
5278;DHT22;2662;51.194;6.614;2023-03-14T04:29:22;10.90;99.90
5278;DHT22;2662;51.194;6.614;2023-03-14T04:31:48;10.80;99.90
5278;DHT22;2662;51.194;6.614;2023-03-14T04:34:15;10.80;99.90
5278;DHT22;2662;51.194;6.614;2023-03-14T04:36:42;10.80;99.90
5278;DHT22;2662;51.194;6.614;2023-03-14T04:39:09;10.80;99.90
5278;DHT22;2662;51.194;6.614;2023-03-14T04:41:35;10.80;99.90
5278;DHT22;2662;51.194;6.614;2023-03-14T04:44:02;10.90;99.90
5278;DHT22;2662;51.194;6.614;2023-03-14T04:46:30;10.90;99.90
5278;DHT22;2662;51.194;6.614;2023-03-14T04:48:57;11.00;99.90
5278;DHT22;2662;51.194;6.614;2023-03-14T04:51:24;11.00;99.90
5278;DHT22;2662;51.194;6.614;2023-03-14T04:53:53;11.00;99.90
5278;DHT22;2662;51.194;6.614;2023-03-14T04:56:20;11.10;99.90
5278;DHT22;2662;51.194;6.614;2023-03-14T04:58:46;11.10;99.90
5278;DHT22;2662;51.194;6.614;2023-03-14T05:01:13;11.00;99.90
5278;DHT22;2662;51.194;6.614;2023-03-14T05:03:41;11.00;99.90
5278;DHT22;2662;51.194;6.614;2023-03-14T05:06:08;11.00;99.90
5278;DHT22;2662;51.194;6.614;2023-03-14T05:08:35;11.00;99.90
5278;DHT22;2662;51.194;6.614;2023-03-14T05:11:01;10.90;99.90
5278;DHT22;2662;51.194;6.614;2023-03-14T05:13:29;10.90;99.90
5278;DHT22;2662;51.194;6.614;2023-03-14T05:16:04;10.80;99.90
5278;DHT22;2662;51.194;6.614;2023-03-14T05:18:30;10.80;99.90
5278;DHT22;2662;51.194;6.614;2023-03-14T05:20:58;10.80;99.90
5278;DHT22;2662;51.194;6.614;2023-03-14T05:23:25;10.80;99.90
5278;DHT22;2662;51.194;6.614;2023-03-14T05:25:52;10.80;99.90
5278;DHT22;2662;51.194;6.614;2023-03-14T05:28:19;10.80;99.90
5278;DHT22;2662;51.194;6.614;2023-03-14T05:30:46;10.80;99.90
5278;DHT22;2662;51.194;6.614;2023-03-14T05:33:12;10.80;99.90
5278;DHT22;2662;51.194;6.614;2023-03-14T05:35:39;10.80;99.90
5278;DHT22;2662;51.194;6.614;2023-03-14T05:38:07;10.80;99.90
5278;DHT22;2662;51.194;6.614;2023-03-14T05:40:35;10.80;99.90
5278;DHT22;2662;51.194;6.614;2023-03-14T05:43:02;10.80;99.90
5278;DHT22;2662;51.194;6.614;2023-03-14T05:45:29;10.80;99.90
5278;DHT22;2662;51.194;6.614;2023-03-14T05:47:55;10.80;99.90
5278;DHT22;2662;51.194;6.614;2023-03-14T05:50:22;10.80;99.90
5278;DHT22;2662;51.194;6.614;2023-03-14T05:52:49;10.80;99.90
5278;DHT22;2662;51.194;6.614;2023-03-14T05:55:17;10.80;99.90
5278;DHT22;2662;51.194;6.614;2023-03-14T05:57:43;10.80;99.90
5278;DHT22;2662;51.194;6.614;2023-03-14T06:00:11;10.80;99.90
5278;DHT22;2662;51.194;6.614;2023-03-14T06:02:38;10.80;99.90
5278;DHT22;2662;51.194;6.614;2023-03-14T06:05:05;10.80;99.90
5278;DHT22;2662;51.194;6.614;2023-03-14T06:07:32;10.80;99.90
5278;DHT22;2662;51.194;6.614;2023-03-14T06:09:59;10.80;99.90
5278;DHT22;2662;51.194;6.614;2023-03-14T06:12:27;10.70;99.90
5278;DHT22;2662;51.194;6.614;2023-03-14T06:14:53;10.70;99.90
5278;DHT22;2662;51.194;6.614;2023-03-14T06:17:20;10.80;99.90
5278;DHT22;2662;51.194;6.614;2023-03-14T06:19:47;10.80;99.90
5278;DHT22;2662;51.194;6.614;2023-03-14T06:22:14;10.90;99.90
5278;DHT22;2662;51.194;6.614;2023-03-14T06:24:41;10.90;99.90
5278;DHT22;2662;51.194;6.614;2023-03-14T06:27:07;11.00;99.90
5278;DHT22;2662;51.194;6.614;2023-03-14T06:29:35;11.00;99.90
5278;DHT22;2662;51.194;6.614;2023-03-14T06:32:02;11.10;99.90
5278;DHT22;2662;51.194;6.614;2023-03-14T06:34:30;11.10;99.90
5278;DHT22;2662;51.194;6.614;2023-03-14T06:36:56;11.20;99.90
5278;DHT22;2662;51.194;6.614;2023-03-14T06:39:23;11.20;99.90
5278;DHT22;2662;51.194;6.614;2023-03-14T06:41:50;11.20;99.90
5278;DHT22;2662;51.194;6.614;2023-03-14T06:44:16;11.30;99.90
5278;DHT22;2662;51.194;6.614;2023-03-14T06:46:44;11.30;99.90
5278;DHT22;2662;51.194;6.614;2023-03-14T06:49:11;11.30;99.90
5278;DHT22;2662;51.194;6.614;2023-03-14T06:51:38;11.30;99.90
5278;DHT22;2662;51.194;6.614;2023-03-14T06:54:05;11.40;99.90
5278;DHT22;2662;51.194;6.614;2023-03-14T06:56:31;11.50;99.90
5278;DHT22;2662;51.194;6.614;2023-03-14T06:58:58;11.50;99.90
5278;DHT22;2662;51.194;6.614;2023-03-14T07:01:27;11.60;99.90
5278;DHT22;2662;51.194;6.614;2023-03-14T07:03:56;11.60;99.90
5278;DHT22;2662;51.194;6.614;2023-03-14T07:06:22;11.50;99.90
5278;DHT22;2662;51.194;6.614;2023-03-14T07:08:50;11.50;99.90
5278;DHT22;2662;51.194;6.614;2023-03-14T07:11:17;11.50;99.90
5278;DHT22;2662;51.194;6.614;2023-03-14T07:13:44;11.60;99.90
5278;DHT22;2662;51.194;6.614;2023-03-14T07:16:10;11.70;99.90
5278;DHT22;2662;51.194;6.614;2023-03-14T07:18:37;11.80;99.90
5278;DHT22;2662;51.194;6.614;2023-03-14T07:21:06;11.80;99.90
5278;DHT22;2662;51.194;6.614;2023-03-14T07:23:32;11.70;99.90
5278;DHT22;2662;51.194;6.614;2023-03-14T07:25:59;11.80;99.90
5278;DHT22;2662;51.194;6.614;2023-03-14T07:28:26;11.90;99.90
5278;DHT22;2662;51.194;6.614;2023-03-14T07:30:53;12.00;99.90
5278;DHT22;2662;51.194;6.614;2023-03-14T07:33:20;12.00;99.90
5278;DHT22;2662;51.194;6.614;2023-03-14T07:35:47;12.00;99.90
5278;DHT22;2662;51.194;6.614;2023-03-14T07:38:16;12.00;99.90
5278;DHT22;2662;51.194;6.614;2023-03-14T07:40:43;12.10;99.90
5278;DHT22;2662;51.194;6.614;2023-03-14T07:43:09;12.30;99.90
5278;DHT22;2662;51.194;6.614;2023-03-14T07:45:36;12.30;99.90
5278;DHT22;2662;51.194;6.614;2023-03-14T07:48:03;12.30;99.90
5278;DHT22;2662;51.194;6.614;2023-03-14T07:50:30;12.60;99.90
5278;DHT22;2662;51.194;6.614;2023-03-14T07:52:56;13.00;99.90
5278;DHT22;2662;51.194;6.614;2023-03-14T07:55:24;13.10;99.90
5278;DHT22;2662;51.194;6.614;2023-03-14T07:57:51;13.20;99.90
5278;DHT22;2662;51.194;6.614;2023-03-14T08:00:19;13.10;99.90
5278;DHT22;2662;51.194;6.614;2023-03-14T08:02:45;13.10;99.90
5278;DHT22;2662;51.194;6.614;2023-03-14T08:05:12;13.10;99.90
5278;DHT22;2662;51.194;6.614;2023-03-14T08:07:39;13.10;99.90
5278;DHT22;2662;51.194;6.614;2023-03-14T08:10:07;13.10;99.90
5278;DHT22;2662;51.194;6.614;2023-03-14T08:12:35;13.20;99.90
5278;DHT22;2662;51.194;6.614;2023-03-14T08:15:02;13.20;99.90
5278;DHT22;2662;51.194;6.614;2023-03-14T08:17:29;13.10;99.90
5278;DHT22;2662;51.194;6.614;2023-03-14T08:19:56;13.10;99.90
5278;DHT22;2662;51.194;6.614;2023-03-14T08:22:23;13.00;99.90
5278;DHT22;2662;51.194;6.614;2023-03-14T08:24:49;13.00;99.90
5278;DHT22;2662;51.194;6.614;2023-03-14T08:27:16;13.10;99.90
5278;DHT22;2662;51.194;6.614;2023-03-14T08:29:44;13.00;99.90
5278;DHT22;2662;51.194;6.614;2023-03-14T08:32:11;12.90;99.90
5278;DHT22;2662;51.194;6.614;2023-03-14T08:34:37;12.80;99.90
5278;DHT22;2662;51.194;6.614;2023-03-14T08:37:05;12.80;99.90
5278;DHT22;2662;51.194;6.614;2023-03-14T08:39:32;12.80;99.90
5278;DHT22;2662;51.194;6.614;2023-03-14T08:41:58;12.90;99.90
5278;DHT22;2662;51.194;6.614;2023-03-14T08:44:25;12.70;99.90
5278;DHT22;2662;51.194;6.614;2023-03-14T08:46:53;12.60;99.90
5278;DHT22;2662;51.194;6.614;2023-03-14T08:49:20;12.40;99.90
5278;DHT22;2662;51.194;6.614;2023-03-14T08:51:47;12.30;99.90
5278;DHT22;2662;51.194;6.614;2023-03-14T08:54:13;12.30;99.90
5278;DHT22;2662;51.194;6.614;2023-03-14T08:56:40;12.40;99.90
5278;DHT22;2662;51.194;6.614;2023-03-14T08:59:07;12.50;99.90
5278;DHT22;2662;51.194;6.614;2023-03-14T09:01:35;12.50;99.90
5278;DHT22;2662;51.194;6.614;2023-03-14T09:04:33;12.40;99.90
5278;DHT22;2662;51.194;6.614;2023-03-14T09:07:00;12.50;99.90
5278;DHT22;2662;51.194;6.614;2023-03-14T09:09:27;12.40;99.90
5278;DHT22;2662;51.194;6.614;2023-03-14T09:11:53;12.20;99.90
5278;DHT22;2662;51.194;6.614;2023-03-14T09:14:20;11.80;99.90
5278;DHT22;2662;51.194;6.614;2023-03-14T09:16:47;11.30;99.90
5278;DHT22;2662;51.194;6.614;2023-03-14T09:19:13;10.90;99.90
5278;DHT22;2662;51.194;6.614;2023-03-14T09:21:41;10.50;99.90
5278;DHT22;2662;51.194;6.614;2023-03-14T09:24:08;10.20;99.90
5278;DHT22;2662;51.194;6.614;2023-03-14T09:26:35;10.10;99.90
5278;DHT22;2662;51.194;6.614;2023-03-14T09:29:02;9.90;99.90
5278;DHT22;2662;51.194;6.614;2023-03-14T09:31:28;9.90;99.90
5278;DHT22;2662;51.194;6.614;2023-03-14T09:33:56;9.80;99.90
5278;DHT22;2662;51.194;6.614;2023-03-14T09:36:23;9.80;99.90
5278;DHT22;2662;51.194;6.614;2023-03-14T09:38:51;9.80;99.90
5278;DHT22;2662;51.194;6.614;2023-03-14T09:41:21;9.70;99.90
5278;DHT22;2662;51.194;6.614;2023-03-14T09:43:49;9.70;99.90
5278;DHT22;2662;51.194;6.614;2023-03-14T09:46:22;9.70;99.90
5278;DHT22;2662;51.194;6.614;2023-03-14T09:48:49;9.60;99.90
5278;DHT22;2662;51.194;6.614;2023-03-14T09:51:17;9.60;99.90
5278;DHT22;2662;51.194;6.614;2023-03-14T09:53:47;9.60;99.90
5278;DHT22;2662;51.194;6.614;2023-03-14T09:56:18;9.70;99.90
5278;DHT22;2662;51.194;6.614;2023-03-14T09:58:50;9.60;99.90
5278;DHT22;2662;51.194;6.614;2023-03-14T10:01:22;9.60;99.90
5278;DHT22;2662;51.194;6.614;2023-03-14T10:03:51;9.50;99.90
5278;DHT22;2662;51.194;6.614;2023-03-14T10:06:19;9.30;99.90
5278;DHT22;2662;51.194;6.614;2023-03-14T10:08:47;9.20;99.90
5278;DHT22;2662;51.194;6.614;2023-03-14T10:11:16;9.30;99.90
5278;DHT22;2662;51.194;6.614;2023-03-14T10:14:01;9.50;99.90
5278;DHT22;2662;51.194;6.614;2023-03-14T10:16:30;9.60;99.90
5278;DHT22;2662;51.194;6.614;2023-03-14T10:19:02;9.80;99.90
5278;DHT22;2662;51.194;6.614;2023-03-14T10:21:30;9.90;99.90
5278;DHT22;2662;51.194;6.614;2023-03-14T10:24:08;9.80;99.90
5278;DHT22;2662;51.194;6.614;2023-03-14T10:26:36;9.70;99.90
5278;DHT22;2662;51.194;6.614;2023-03-14T10:29:08;9.70;99.90
5278;DHT22;2662;51.194;6.614;2023-03-14T10:31:46;9.70;99.90
5278;DHT22;2662;51.194;6.614;2023-03-14T10:34:17;9.70;99.90
5278;DHT22;2662;51.194;6.614;2023-03-14T10:36:44;9.70;99.90
5278;DHT22;2662;51.194;6.614;2023-03-14T10:39:26;9.80;99.90
5278;DHT22;2662;51.194;6.614;2023-03-14T10:42:02;9.80;99.90
5278;DHT22;2662;51.194;6.614;2023-03-14T10:44:30;9.80;99.90
5278;DHT22;2662;51.194;6.614;2023-03-14T10:47:00;9.80;99.90
5278;DHT22;2662;51.194;6.614;2023-03-14T10:49:29;9.70;99.90
5278;DHT22;2662;51.194;6.614;2023-03-14T10:52:01;9.60;99.90
5278;DHT22;2662;51.194;6.614;2023-03-14T10:54:29;9.50;99.90
5278;DHT22;2662;51.194;6.614;2023-03-14T10:56:59;9.50;99.90
5278;DHT22;2662;51.194;6.614;2023-03-14T10:59:29;9.40;99.90
5278;DHT22;2662;51.194;6.614;2023-03-14T11:02:04;9.20;99.90
5278;DHT22;2662;51.194;6.614;2023-03-14T11:04:49;9.00;99.90
5278;DHT22;2662;51.194;6.614;2023-03-14T11:07:24;8.70;99.90
5278;DHT22;2662;51.194;6.614;2023-03-14T11:09:58;8.70;99.90
5278;DHT22;2662;51.194;6.614;2023-03-14T11:12:41;8.60;99.90
5278;DHT22;2662;51.194;6.614;2023-03-14T11:15:15;8.60;99.90
5278;DHT22;2662;51.194;6.614;2023-03-14T11:17:50;8.60;99.90
5278;DHT22;2662;51.194;6.614;2023-03-14T11:20:35;8.60;99.90
5278;DHT22;2662;51.194;6.614;2023-03-14T11:23:11;8.80;99.90
5278;DHT22;2662;51.194;6.614;2023-03-14T11:25:44;8.70;99.90
5278;DHT22;2662;51.194;6.614;2023-03-14T11:28:23;8.60;99.90
5278;DHT22;2662;51.194;6.614;2023-03-14T11:30:53;8.50;99.90
5278;DHT22;2662;51.194;6.614;2023-03-14T11:33:24;8.50;99.90
5278;DHT22;2662;51.194;6.614;2023-03-14T11:35:58;8.70;99.90
5278;DHT22;2662;51.194;6.614;2023-03-14T11:38:32;8.60;99.90
5278;DHT22;2662;51.194;6.614;2023-03-14T11:41:01;8.60;99.90
5278;DHT22;2662;51.194;6.614;2023-03-14T11:43:32;8.40;99.90
5278;DHT22;2662;51.194;6.614;2023-03-14T11:46:04;8.30;99.90
5278;DHT22;2662;51.194;6.614;2023-03-14T11:48:38;8.50;99.90
5278;DHT22;2662;51.194;6.614;2023-03-14T11:51:11;8.50;99.90
5278;DHT22;2662;51.194;6.614;2023-03-14T11:53:45;8.50;99.90
5278;DHT22;2662;51.194;6.614;2023-03-14T11:56:20;8.50;99.90
5278;DHT22;2662;51.194;6.614;2023-03-14T11:58:55;8.60;99.90
5278;DHT22;2662;51.194;6.614;2023-03-14T12:01:30;8.60;99.90
5278;DHT22;2662;51.194;6.614;2023-03-14T12:04:04;8.70;99.90
5278;DHT22;2662;51.194;6.614;2023-03-14T12:06:37;8.60;99.90
5278;DHT22;2662;51.194;6.614;2023-03-14T12:09:07;8.60;99.90
5278;DHT22;2662;51.194;6.614;2023-03-14T12:11:39;8.50;99.90
5278;DHT22;2662;51.194;6.614;2023-03-14T12:14:21;8.30;99.90
5278;DHT22;2662;51.194;6.614;2023-03-14T12:16:49;8.20;99.90
5278;DHT22;2662;51.194;6.614;2023-03-14T12:19:36;8.10;99.90
5278;DHT22;2662;51.194;6.614;2023-03-14T12:22:24;8.10;99.90
5278;DHT22;2662;51.194;6.614;2023-03-14T12:24:59;8.00;99.90
5278;DHT22;2662;51.194;6.614;2023-03-14T12:28:04;8.00;99.90
5278;DHT22;2662;51.194;6.614;2023-03-14T12:30:34;7.90;99.90
5278;DHT22;2662;51.194;6.614;2023-03-14T12:33:28;7.90;99.90
5278;DHT22;2662;51.194;6.614;2023-03-14T12:35:59;8.50;99.90
5278;DHT22;2662;51.194;6.614;2023-03-14T12:38:32;8.80;99.90
5278;DHT22;2662;51.194;6.614;2023-03-14T12:41:07;8.90;99.90
5278;DHT22;2662;51.194;6.614;2023-03-14T12:43:39;9.00;99.90
5278;DHT22;2662;51.194;6.614;2023-03-14T12:46:15;9.20;99.90
5278;DHT22;2662;51.194;6.614;2023-03-14T12:48:44;9.40;99.90
5278;DHT22;2662;51.194;6.614;2023-03-14T12:51:16;9.80;99.90
5278;DHT22;2662;51.194;6.614;2023-03-14T12:54:21;9.90;99.90
5278;DHT22;2662;51.194;6.614;2023-03-14T12:57:03;9.80;99.90
5278;DHT22;2662;51.194;6.614;2023-03-14T12:59:33;8.80;99.90
5278;DHT22;2662;51.194;6.614;2023-03-14T13:05:00;7.70;99.90
5278;DHT22;2662;51.194;6.614;2023-03-14T13:07:36;7.40;99.90
5278;DHT22;2662;51.194;6.614;2023-03-14T13:10:24;7.30;99.90
5278;DHT22;2662;51.194;6.614;2023-03-14T13:12:54;7.20;99.90
5278;DHT22;2662;51.194;6.614;2023-03-14T13:15:26;7.30;99.90
5278;DHT22;2662;51.194;6.614;2023-03-14T13:17:56;7.40;99.90
5278;DHT22;2662;51.194;6.614;2023-03-14T13:20:29;7.50;99.90
5278;DHT22;2662;51.194;6.614;2023-03-14T13:22:56;7.70;99.90
5278;DHT22;2662;51.194;6.614;2023-03-14T13:25:29;7.70;99.90
5278;DHT22;2662;51.194;6.614;2023-03-14T13:27:56;7.80;99.90
5278;DHT22;2662;51.194;6.614;2023-03-14T13:30:24;7.90;99.90
5278;DHT22;2662;51.194;6.614;2023-03-14T13:32:53;8.10;99.90
5278;DHT22;2662;51.194;6.614;2023-03-14T13:35:23;8.20;99.90
5278;DHT22;2662;51.194;6.614;2023-03-14T13:37:56;8.60;99.90
5278;DHT22;2662;51.194;6.614;2023-03-14T13:40:30;9.00;99.90
5278;DHT22;2662;51.194;6.614;2023-03-14T13:43:10;9.40;99.90
5278;DHT22;2662;51.194;6.614;2023-03-14T13:45:44;9.50;99.90
5278;DHT22;2662;51.194;6.614;2023-03-14T13:48:12;9.50;99.90
5278;DHT22;2662;51.194;6.614;2023-03-14T13:50:51;9.30;99.90
5278;DHT22;2662;51.194;6.614;2023-03-14T13:53:19;9.20;99.90
5278;DHT22;2662;51.194;6.614;2023-03-14T13:55:47;9.30;99.90
5278;DHT22;2662;51.194;6.614;2023-03-14T13:58:25;9.40;99.90
5278;DHT22;2662;51.194;6.614;2023-03-14T14:00:58;9.60;99.90
5278;DHT22;2662;51.194;6.614;2023-03-14T14:03:27;9.60;99.90
5278;DHT22;2662;51.194;6.614;2023-03-14T14:05:55;9.50;99.90
5278;DHT22;2662;51.194;6.614;2023-03-14T14:08:23;9.30;99.90
5278;DHT22;2662;51.194;6.614;2023-03-14T14:10:54;9.10;99.90
5278;DHT22;2662;51.194;6.614;2023-03-14T14:13:22;8.90;99.90
5278;DHT22;2662;51.194;6.614;2023-03-14T14:15:52;8.90;99.90
5278;DHT22;2662;51.194;6.614;2023-03-14T14:18:21;8.90;99.90
5278;DHT22;2662;51.194;6.614;2023-03-14T14:20:49;9.00;99.90
5278;DHT22;2662;51.194;6.614;2023-03-14T14:23:18;9.00;99.90
5278;DHT22;2662;51.194;6.614;2023-03-14T14:25:51;9.00;99.90
5278;DHT22;2662;51.194;6.614;2023-03-14T14:28:23;9.30;99.90
5278;DHT22;2662;51.194;6.614;2023-03-14T14:31:04;9.30;99.90
5278;DHT22;2662;51.194;6.614;2023-03-14T14:33:39;9.40;99.90
5278;DHT22;2662;51.194;6.614;2023-03-14T14:36:18;9.50;99.90
5278;DHT22;2662;51.194;6.614;2023-03-14T14:38:50;9.60;99.90
5278;DHT22;2662;51.194;6.614;2023-03-14T14:41:19;9.60;99.90
5278;DHT22;2662;51.194;6.614;2023-03-14T14:43:46;9.80;99.90
5278;DHT22;2662;51.194;6.614;2023-03-14T14:46:17;9.90;99.90
5278;DHT22;2662;51.194;6.614;2023-03-14T14:48:44;10.00;99.90
5278;DHT22;2662;51.194;6.614;2023-03-14T14:51:23;10.10;99.90
5278;DHT22;2662;51.194;6.614;2023-03-14T14:54:01;10.20;99.90
5278;DHT22;2662;51.194;6.614;2023-03-14T14:56:30;10.10;99.90
5278;DHT22;2662;51.194;6.614;2023-03-14T14:58:58;10.00;99.90
5278;DHT22;2662;51.194;6.614;2023-03-14T15:01:33;9.90;99.90
5278;DHT22;2662;51.194;6.614;2023-03-14T15:04:01;9.90;99.90
5278;DHT22;2662;51.194;6.614;2023-03-14T15:06:29;10.00;99.90
5278;DHT22;2662;51.194;6.614;2023-03-14T15:08:57;10.10;99.90
5278;DHT22;2662;51.194;6.614;2023-03-14T15:11:25;9.90;99.90
5278;DHT22;2662;51.194;6.614;2023-03-14T15:13:54;9.80;99.90
5278;DHT22;2662;51.194;6.614;2023-03-14T15:16:22;9.70;99.90
5278;DHT22;2662;51.194;6.614;2023-03-14T15:18:53;9.70;99.90
5278;DHT22;2662;51.194;6.614;2023-03-14T15:21:21;9.60;99.90
5278;DHT22;2662;51.194;6.614;2023-03-14T15:23:47;9.50;99.90
5278;DHT22;2662;51.194;6.614;2023-03-14T15:26:16;9.50;99.90
5278;DHT22;2662;51.194;6.614;2023-03-14T15:28:44;9.50;99.90
5278;DHT22;2662;51.194;6.614;2023-03-14T15:31:13;9.40;99.90
5278;DHT22;2662;51.194;6.614;2023-03-14T15:33:41;9.40;99.90
5278;DHT22;2662;51.194;6.614;2023-03-14T15:36:19;9.30;99.90
5278;DHT22;2662;51.194;6.614;2023-03-14T15:38:47;9.30;99.90
5278;DHT22;2662;51.194;6.614;2023-03-14T15:41:13;9.30;99.90
5278;DHT22;2662;51.194;6.614;2023-03-14T15:43:41;9.20;99.90
5278;DHT22;2662;51.194;6.614;2023-03-14T15:46:08;9.20;99.90
5278;DHT22;2662;51.194;6.614;2023-03-14T15:48:37;9.20;99.90
5278;DHT22;2662;51.194;6.614;2023-03-14T15:51:04;9.20;99.90
5278;DHT22;2662;51.194;6.614;2023-03-14T15:53:31;9.10;99.90
5278;DHT22;2662;51.194;6.614;2023-03-14T15:55:58;9.00;99.90
5278;DHT22;2662;51.194;6.614;2023-03-14T15:58:25;9.00;99.90
5278;DHT22;2662;51.194;6.614;2023-03-14T16:00:52;8.90;99.90
5278;DHT22;2662;51.194;6.614;2023-03-14T16:03:19;8.80;99.90
5278;DHT22;2662;51.194;6.614;2023-03-14T16:05:47;8.70;99.90
5278;DHT22;2662;51.194;6.614;2023-03-14T16:08:14;8.70;99.90
5278;DHT22;2662;51.194;6.614;2023-03-14T16:10:42;8.60;99.90
5278;DHT22;2662;51.194;6.614;2023-03-14T16:13:09;8.70;99.90
5278;DHT22;2662;51.194;6.614;2023-03-14T16:15:36;8.60;99.90
5278;DHT22;2662;51.194;6.614;2023-03-14T16:18:02;8.60;99.90
5278;DHT22;2662;51.194;6.614;2023-03-14T16:20:30;8.70;99.90
5278;DHT22;2662;51.194;6.614;2023-03-14T16:22:58;8.80;99.90
5278;DHT22;2662;51.194;6.614;2023-03-14T16:25:25;8.70;99.90
5278;DHT22;2662;51.194;6.614;2023-03-14T16:27:52;8.70;99.90